Mount Vernon, AL (36560)

12:36 AM CST on December 04, 2016 (GMT -0600)
APRSWXNET | | Change Station

Elev 49 ft 31.15 °N, 88.00 °W | Updated 31 minutes ago

Overcast
Overcast
58 °F
Feels Like 58 °F
N
1
Wind Variable Wind from SSE
Gusts 8.0 mph

Today
High -- | Low -- °F
--% Chance of Precip.
Yesterday
High -- | Low -- °F
Precip. -- in
Pressure 30.01 in
Visibility 10.0 miles
Clouds Overcast 5000 ft
Dew Point 39 °F
Humidity 49%
Rainfall in
Snow Depth Not available.
6:35 AM 4:49 PM
Waxing Crescent, 20% visible
METAR KMOB 040556Z AUTO 12012KT 10SM OVC050 15/03 A3001 RMK AO2 SLP160 T01500033 10150 20144 401780100 56021
Pressure 30.01 in
Visibility 10.0 miles
Clouds Overcast 5000 ft
Dew Point 39 °F
Humidity 49%
Rainfall in
Snow Depth Not available.
6:35 AM 4:49 PM
Waxing Crescent, 20% visible
METAR KMOB 040556Z AUTO 12012KT 10SM OVC050 15/03 A3001 RMK AO2 SLP160 T01500033 10150 20144 401780100 56021

10-Day Weather Forecast

Almanac

Astronomy

Dec. 04, 2016 Rise Set
Actual Time
Civil Twilight
Nautical Twilight
Astronomical Twilight
Moon
Length of Visible Light
Length of Day
Tomorrow will be .
, % of the Moon is Illuminated

Today's Extremes

State Highs State Lows

Community

WunderPhotos

Upload Photos

1,955,588 photos uploaded!

WunderBlog® & News

Nearby

Air Quality

  Air Quality AQ Index Pollutant
Not available.

Snow Depth

Station Depth Elevation

Earthquake Activity

City Distance Mag. Time & Date
Minimum magnitude displayed is 2.5.

Coastal Water Temperatures

Place Temperature

Stations

Nearby Weather Stations

Station Location Temp. Windchill Dew Point Humidity Wind Precip. Elev Updated Type
                   

Watches & Warnings

There are currently no watches in effect.